sensor_id;sensor_type;location;lat;lon;timestamp;temperature;humidity
14877;DHT22;22152;48.158;17.118;2023-02-24T00:02:00;10.60;68.90
14877;DHT22;22152;48.158;17.118;2023-02-24T00:04:31;10.60;69.20
14877;DHT22;22152;48.158;17.118;2023-02-24T00:06:59;10.60;69.00
14877;DHT22;22152;48.158;17.118;2023-02-24T00:09:26;10.60;69.90
14877;DHT22;22152;48.158;17.118;2023-02-24T00:11:56;10.60;69.20
14877;DHT22;22152;48.158;17.118;2023-02-24T00:14:26;10.50;69.10
14877;DHT22;22152;48.158;17.118;2023-02-24T00:16:53;10.50;69.20
14877;DHT22;22152;48.158;17.118;2023-02-24T00:19:25;10.30;69.50
14877;DHT22;22152;48.158;17.118;2023-02-24T00:21:53;10.30;70.00
14877;DHT22;22152;48.158;17.118;2023-02-24T00:24:22;10.10;70.30
14877;DHT22;22152;48.158;17.118;2023-02-24T00:26:52;10.10;70.80
14877;DHT22;22152;48.158;17.118;2023-02-24T00:29:25;10.00;71.10
14877;DHT22;22152;48.158;17.118;2023-02-24T00:31:55;10.00;71.20
14877;DHT22;22152;48.158;17.118;2023-02-24T00:34:28;10.10;71.20
14877;DHT22;22152;48.158;17.118;2023-02-24T00:36:56;10.10;71.30
14877;DHT22;22152;48.158;17.118;2023-02-24T00:39:22;10.10;71.20
14877;DHT22;22152;48.158;17.118;2023-02-24T00:41:53;10.10;71.20
14877;DHT22;22152;48.158;17.118;2023-02-24T00:44:33;10.10;71.40
14877;DHT22;22152;48.158;17.118;2023-02-24T00:47:02;10.10;71.30
14877;DHT22;22152;48.158;17.118;2023-02-24T00:49:31;10.20;71.30
14877;DHT22;22152;48.158;17.118;2023-02-24T00:51:58;10.10;71.30
14877;DHT22;22152;48.158;17.118;2023-02-24T00:54:25;10.10;71.30
14877;DHT22;22152;48.158;17.118;2023-02-24T00:56:54;10.10;71.30
14877;DHT22;22152;48.158;17.118;2023-02-24T00:59:21;10.10;71.40
14877;DHT22;22152;48.158;17.118;2023-02-24T01:01:49;10.20;71.30
14877;DHT22;22152;48.158;17.118;2023-02-24T01:04:16;10.20;71.30
14877;DHT22;22152;48.158;17.118;2023-02-24T01:06:46;10.10;71.40
14877;DHT22;22152;48.158;17.118;2023-02-24T01:09:15;10.20;71.50
14877;DHT22;22152;48.158;17.118;2023-02-24T01:11:44;10.30;71.30
14877;DHT22;22152;48.158;17.118;2023-02-24T01:14:32;10.30;70.80
14877;DHT22;22152;48.158;17.118;2023-02-24T01:17:00;10.40;70.70
14877;DHT22;22152;48.158;17.118;2023-02-24T01:19:29;10.30;70.60
14877;DHT22;22152;48.158;17.118;2023-02-24T01:22:00;10.40;70.80
14877;DHT22;22152;48.158;17.118;2023-02-24T01:24:30;10.40;70.60
14877;DHT22;22152;48.158;17.118;2023-02-24T01:27:00;10.50;70.90
14877;DHT22;22152;48.158;17.118;2023-02-24T01:29:27;10.50;70.70
14877;DHT22;22152;48.158;17.118;2023-02-24T01:31:53;10.60;70.50
14877;DHT22;22152;48.158;17.118;2023-02-24T01:34:26;10.60;70.40
14877;DHT22;22152;48.158;17.118;2023-02-24T01:36:53;10.60;70.20
14877;DHT22;22152;48.158;17.118;2023-02-24T01:39:19;10.60;70.20
14877;DHT22;22152;48.158;17.118;2023-02-24T01:41:48;10.60;70.10
14877;DHT22;22152;48.158;17.118;2023-02-24T01:46:44;10.50;70.10
14877;DHT22;22152;48.158;17.118;2023-02-24T01:49:31;10.60;70.40
14877;DHT22;22152;48.158;17.118;2023-02-24T01:52:07;10.60;71.00
14877;DHT22;22152;48.158;17.118;2023-02-24T01:55:02;10.70;70.00
14877;DHT22;22152;48.158;17.118;2023-02-24T01:57:35;10.70;70.00
14877;DHT22;22152;48.158;17.118;2023-02-24T02:00:05;10.80;70.60
14877;DHT22;22152;48.158;17.118;2023-02-24T02:02:41;10.80;69.40
14877;DHT22;22152;48.158;17.118;2023-02-24T02:05:09;10.70;69.20
14877;DHT22;22152;48.158;17.118;2023-02-24T02:07:37;10.80;69.40
14877;DHT22;22152;48.158;17.118;2023-02-24T02:10:08;10.80;69.30
14877;DHT22;22152;48.158;17.118;2023-02-24T02:12:36;10.80;69.40
14877;DHT22;22152;48.158;17.118;2023-02-24T02:15:14;10.70;69.30
14877;DHT22;22152;48.158;17.118;2023-02-24T02:18:21;10.70;69.20
14877;DHT22;22152;48.158;17.118;2023-02-24T02:21:29;10.70;69.30
14877;DHT22;22152;48.158;17.118;2023-02-24T02:24:21;10.70;69.20
14877;DHT22;22152;48.158;17.118;2023-02-24T02:29:55;10.80;69.30
14877;DHT22;22152;48.158;17.118;2023-02-24T02:38:56;10.80;69.10
14877;DHT22;22152;48.158;17.118;2023-02-24T02:41:46;10.70;69.20
14877;DHT22;22152;48.158;17.118;2023-02-24T02:47:19;10.70;69.70
14877;DHT22;22152;48.158;17.118;2023-02-24T02:49:51;10.60;69.60
14877;DHT22;22152;48.158;17.118;2023-02-24T02:52:32;10.50;69.60
14877;DHT22;22152;48.158;17.118;2023-02-24T02:55:14;10.50;69.70
14877;DHT22;22152;48.158;17.118;2023-02-24T02:57:48;10.50;69.90
14877;DHT22;22152;48.158;17.118;2023-02-24T03:00:28;10.50;69.70
14877;DHT22;22152;48.158;17.118;2023-02-24T03:03:05;10.40;69.80
14877;DHT22;22152;48.158;17.118;2023-02-24T03:05:41;10.40;69.80
14877;DHT22;22152;48.158;17.118;2023-02-24T03:08:19;10.40;69.80
14877;DHT22;22152;48.158;17.118;2023-02-24T03:10:46;10.40;69.90
14877;DHT22;22152;48.158;17.118;2023-02-24T03:13:20;10.40;70.00
14877;DHT22;22152;48.158;17.118;2023-02-24T03:15:51;10.40;70.10
14877;DHT22;22152;48.158;17.118;2023-02-24T03:18:23;10.40;70.00
14877;DHT22;22152;48.158;17.118;2023-02-24T03:21:02;10.40;70.20
14877;DHT22;22152;48.158;17.118;2023-02-24T03:23:36;10.40;70.20
14877;DHT22;22152;48.158;17.118;2023-02-24T03:26:48;10.40;70.20
14877;DHT22;22152;48.158;17.118;2023-02-24T03:29:20;10.30;70.20
14877;DHT22;22152;48.158;17.118;2023-02-24T03:35:15;10.10;71.00
14877;DHT22;22152;48.158;17.118;2023-02-24T03:37:44;10.10;71.00
14877;DHT22;22152;48.158;17.118;2023-02-24T03:40:13;10.10;71.10
14877;DHT22;22152;48.158;17.118;2023-02-24T03:42:42;10.10;71.10
14877;DHT22;22152;48.158;17.118;2023-02-24T03:45:11;10.10;71.00
14877;DHT22;22152;48.158;17.118;2023-02-24T03:47:38;10.10;71.00
14877;DHT22;22152;48.158;17.118;2023-02-24T03:50:18;10.10;70.90
14877;DHT22;22152;48.158;17.118;2023-02-24T03:58:42;10.10;71.10
14877;DHT22;22152;48.158;17.118;2023-02-24T04:04:50;10.00;71.40
14877;DHT22;22152;48.158;17.118;2023-02-24T04:07:54;9.90;72.50
14877;DHT22;22152;48.158;17.118;2023-02-24T04:13:17;9.70;72.50
14877;DHT22;22152;48.158;17.118;2023-02-24T04:15:54;9.50;72.80
14877;DHT22;22152;48.158;17.118;2023-02-24T04:18:27;9.40;73.10
14877;DHT22;22152;48.158;17.118;2023-02-24T04:20:58;9.20;73.20
14877;DHT22;22152;48.158;17.118;2023-02-24T04:23:31;9.10;73.40
14877;DHT22;22152;48.158;17.118;2023-02-24T04:26:04;9.00;73.90
14877;DHT22;22152;48.158;17.118;2023-02-24T04:28:33;8.80;74.20
14877;DHT22;22152;48.158;17.118;2023-02-24T04:31:02;8.70;74.70
14877;DHT22;22152;48.158;17.118;2023-02-24T04:33:31;8.60;75.20
14877;DHT22;22152;48.158;17.118;2023-02-24T04:35:58;8.50;75.70
14877;DHT22;22152;48.158;17.118;2023-02-24T04:38:25;8.40;75.90
14877;DHT22;22152;48.158;17.118;2023-02-24T04:40:51;8.40;76.20
14877;DHT22;22152;48.158;17.118;2023-02-24T04:43:17;8.30;76.30
14877;DHT22;22152;48.158;17.118;2023-02-24T04:45:43;8.30;76.50
14877;DHT22;22152;48.158;17.118;2023-02-24T04:48:10;8.20;76.50
14877;DHT22;22152;48.158;17.118;2023-02-24T04:50:42;8.20;76.50
14877;DHT22;22152;48.158;17.118;2023-02-24T04:53:14;8.10;76.50
14877;DHT22;22152;48.158;17.118;2023-02-24T04:55:43;8.00;76.40
14877;DHT22;22152;48.158;17.118;2023-02-24T04:58:16;8.00;76.60
14877;DHT22;22152;48.158;17.118;2023-02-24T05:00:46;8.00;77.00
14877;DHT22;22152;48.158;17.118;2023-02-24T05:03:14;8.00;77.40
14877;DHT22;22152;48.158;17.118;2023-02-24T05:05:52;8.10;77.70
14877;DHT22;22152;48.158;17.118;2023-02-24T05:08:25;8.20;77.90
14877;DHT22;22152;48.158;17.118;2023-02-24T05:10:53;8.20;77.60
14877;DHT22;22152;48.158;17.118;2023-02-24T05:13:23;8.20;77.80
14877;DHT22;22152;48.158;17.118;2023-02-24T05:15:54;8.30;78.00
14877;DHT22;22152;48.158;17.118;2023-02-24T05:18:21;8.40;78.00
14877;DHT22;22152;48.158;17.118;2023-02-24T05:20:52;8.60;78.00
14877;DHT22;22152;48.158;17.118;2023-02-24T05:23:43;8.60;78.00
14877;DHT22;22152;48.158;17.118;2023-02-24T05:26:14;8.70;77.80
14877;DHT22;22152;48.158;17.118;2023-02-24T05:28:43;8.80;77.70
14877;DHT22;22152;48.158;17.118;2023-02-24T05:31:22;8.90;77.50
14877;DHT22;22152;48.158;17.118;2023-02-24T05:34:13;8.90;77.50
14877;DHT22;22152;48.158;17.118;2023-02-24T05:36:41;9.00;77.70
14877;DHT22;22152;48.158;17.118;2023-02-24T05:39:10;9.00;78.40
14877;DHT22;22152;48.158;17.118;2023-02-24T05:41:41;9.10;77.60
14877;DHT22;22152;48.158;17.118;2023-02-24T05:44:11;9.20;77.50
14877;DHT22;22152;48.158;17.118;2023-02-24T05:46:41;9.20;77.20
14877;DHT22;22152;48.158;17.118;2023-02-24T05:49:18;9.30;77.10
14877;DHT22;22152;48.158;17.118;2023-02-24T05:51:49;9.40;76.90
14877;DHT22;22152;48.158;17.118;2023-02-24T05:54:26;9.30;76.70
14877;DHT22;22152;48.158;17.118;2023-02-24T05:57:02;9.30;76.70
14877;DHT22;22152;48.158;17.118;2023-02-24T05:59:30;9.40;76.70
14877;DHT22;22152;48.158;17.118;2023-02-24T06:02:04;9.50;76.70
14877;DHT22;22152;48.158;17.118;2023-02-24T06:04:39;9.50;77.00
14877;DHT22;22152;48.158;17.118;2023-02-24T06:07:16;9.60;76.80
14877;DHT22;22152;48.158;17.118;2023-02-24T06:09:45;9.50;76.40
14877;DHT22;22152;48.158;17.118;2023-02-24T06:12:15;9.50;77.20
14877;DHT22;22152;48.158;17.118;2023-02-24T06:14:42;9.50;77.50
14877;DHT22;22152;48.158;17.118;2023-02-24T06:17:09;9.50;77.80
14877;DHT22;22152;48.158;17.118;2023-02-24T06:19:35;9.50;78.30
14877;DHT22;22152;48.158;17.118;2023-02-24T06:22:01;9.60;78.50
14877;DHT22;22152;48.158;17.118;2023-02-24T06:24:29;9.50;78.50
14877;DHT22;22152;48.158;17.118;2023-02-24T06:26:57;9.60;78.80
14877;DHT22;22152;48.158;17.118;2023-02-24T06:29:28;9.60;78.70
14877;DHT22;22152;48.158;17.118;2023-02-24T06:31:56;9.60;79.20
14877;DHT22;22152;48.158;17.118;2023-02-24T06:34:23;9.70;79.30
14877;DHT22;22152;48.158;17.118;2023-02-24T06:36:50;9.70;79.50
14877;DHT22;22152;48.158;17.118;2023-02-24T06:39:17;9.80;79.70
14877;DHT22;22152;48.158;17.118;2023-02-24T06:41:44;9.80;79.80
14877;DHT22;22152;48.158;17.118;2023-02-24T06:44:10;9.90;79.90
14877;DHT22;22152;48.158;17.118;2023-02-24T06:46:36;9.90;79.90
14877;DHT22;22152;48.158;17.118;2023-02-24T06:49:02;10.00;79.00
14877;DHT22;22152;48.158;17.118;2023-02-24T06:51:28;10.10;78.70
14877;DHT22;22152;48.158;17.118;2023-02-24T06:53:58;10.20;78.20
14877;DHT22;22152;48.158;17.118;2023-02-24T06:56:25;10.30;77.70
14877;DHT22;22152;48.158;17.118;2023-02-24T06:58:53;10.40;77.50
14877;DHT22;22152;48.158;17.118;2023-02-24T07:01:23;10.50;77.40
14877;DHT22;22152;48.158;17.118;2023-02-24T07:03:57;10.50;77.30
14877;DHT22;22152;48.158;17.118;2023-02-24T07:06:35;10.50;77.50
14877;DHT22;22152;48.158;17.118;2023-02-24T07:09:05;10.60;77.70
14877;DHT22;22152;48.158;17.118;2023-02-24T07:11:42;10.60;77.60
14877;DHT22;22152;48.158;17.118;2023-02-24T07:14:11;10.70;77.50
14877;DHT22;22152;48.158;17.118;2023-02-24T07:16:38;10.70;77.40
14877;DHT22;22152;48.158;17.118;2023-02-24T07:19:12;10.70;76.90
14877;DHT22;22152;48.158;17.118;2023-02-24T07:21:41;10.70;77.00
14877;DHT22;22152;48.158;17.118;2023-02-24T07:24:16;10.70;77.10
14877;DHT22;22152;48.158;17.118;2023-02-24T07:27:00;10.70;77.30
14877;DHT22;22152;48.158;17.118;2023-02-24T07:29:30;10.70;77.40
14877;DHT22;22152;48.158;17.118;2023-02-24T07:31:58;10.80;77.20
14877;DHT22;22152;48.158;17.118;2023-02-24T07:34:25;10.80;76.50
14877;DHT22;22152;48.158;17.118;2023-02-24T07:36:54;10.90;75.90
14877;DHT22;22152;48.158;17.118;2023-02-24T07:39:21;10.90;75.70
14877;DHT22;22152;48.158;17.118;2023-02-24T07:41:51;11.00;75.70
14877;DHT22;22152;48.158;17.118;2023-02-24T07:44:20;11.10;75.20
14877;DHT22;22152;48.158;17.118;2023-02-24T07:46:48;11.10;74.90
14877;DHT22;22152;48.158;17.118;2023-02-24T07:49:19;11.20;74.30
14877;DHT22;22152;48.158;17.118;2023-02-24T07:51:50;11.30;74.60
14877;DHT22;22152;48.158;17.118;2023-02-24T07:54:21;11.30;73.80
14877;DHT22;22152;48.158;17.118;2023-02-24T07:56:49;11.30;73.30
14877;DHT22;22152;48.158;17.118;2023-02-24T07:59:23;11.40;73.50
14877;DHT22;22152;48.158;17.118;2023-02-24T08:01:52;11.50;73.50
14877;DHT22;22152;48.158;17.118;2023-02-24T08:04:26;11.50;73.10
14877;DHT22;22152;48.158;17.118;2023-02-24T08:06:53;11.50;73.10
14877;DHT22;22152;48.158;17.118;2023-02-24T08:09:33;11.50;72.60
14877;DHT22;22152;48.158;17.118;2023-02-24T08:12:14;11.50;72.60
14877;DHT22;22152;48.158;17.118;2023-02-24T08:14:47;11.60;73.00
14877;DHT22;22152;48.158;17.118;2023-02-24T08:17:19;11.60;73.40
14877;DHT22;22152;48.158;17.118;2023-02-24T08:19:50;11.80;73.10
14877;DHT22;22152;48.158;17.118;2023-02-24T08:22:37;12.00;72.80
14877;DHT22;22152;48.158;17.118;2023-02-24T08:25:03;12.20;72.40
14877;DHT22;22152;48.158;17.118;2023-02-24T08:27:34;12.20;71.40
14877;DHT22;22152;48.158;17.118;2023-02-24T08:30:07;12.20;70.80
14877;DHT22;22152;48.158;17.118;2023-02-24T08:32:36;12.20;71.30
14877;DHT22;22152;48.158;17.118;2023-02-24T08:35:06;12.20;71.50
14877;DHT22;22152;48.158;17.118;2023-02-24T08:37:51;12.40;71.70
14877;DHT22;22152;48.158;17.118;2023-02-24T08:40:24;12.50;70.80
14877;DHT22;22152;48.158;17.118;2023-02-24T08:43:15;12.60;71.00
14877;DHT22;22152;48.158;17.118;2023-02-24T08:51:23;12.40;72.10
14877;DHT22;22152;48.158;17.118;2023-02-24T08:53:58;12.40;71.50
14877;DHT22;22152;48.158;17.118;2023-02-24T08:56:28;12.50;71.70
14877;DHT22;22152;48.158;17.118;2023-02-24T08:58:59;12.50;71.90
14877;DHT22;22152;48.158;17.118;2023-02-24T09:01:36;12.50;72.00
14877;DHT22;22152;48.158;17.118;2023-02-24T09:04:07;12.50;71.90
14877;DHT22;22152;48.158;17.118;2023-02-24T09:06:43;12.60;71.20
14877;DHT22;22152;48.158;17.118;2023-02-24T09:09:18;12.80;71.50
14877;DHT22;22152;48.158;17.118;2023-02-24T09:11:56;12.90;70.80
14877;DHT22;22152;48.158;17.118;2023-02-24T09:14:26;13.00;70.60
14877;DHT22;22152;48.158;17.118;2023-02-24T09:16:56;13.10;70.30
14877;DHT22;22152;48.158;17.118;2023-02-24T09:19:44;13.30;69.90
14877;DHT22;22152;48.158;17.118;2023-02-24T09:22:19;13.50;68.90
14877;DHT22;22152;48.158;17.118;2023-02-24T09:30:22;14.40;66.80
14877;DHT22;22152;48.158;17.118;2023-02-24T09:33:14;14.70;66.60
14877;DHT22;22152;48.158;17.118;2023-02-24T09:35:47;15.00;64.90
14877;DHT22;22152;48.158;17.118;2023-02-24T09:38:51;15.30;64.20
14877;DHT22;22152;48.158;17.118;2023-02-24T09:44:35;15.60;62.10
14877;DHT22;22152;48.158;17.118;2023-02-24T09:47:05;15.90;61.60
14877;DHT22;22152;48.158;17.118;2023-02-24T09:49:53;16.20;60.10
14877;DHT22;22152;48.158;17.118;2023-02-24T09:52:29;16.30;59.80
14877;DHT22;22152;48.158;17.118;2023-02-24T09:55:16;16.30;58.70
14877;DHT22;22152;48.158;17.118;2023-02-24T09:58:05;16.20;59.00
14877;DHT22;22152;48.158;17.118;2023-02-24T10:06:38;16.20;58.90
14877;DHT22;22152;48.158;17.118;2023-02-24T10:09:31;16.10;59.10
14877;DHT22;22152;48.158;17.118;2023-02-24T10:12:13;16.10;58.90
14877;DHT22;22152;48.158;17.118;2023-02-24T10:17:24;16.20;58.60
14877;DHT22;22152;48.158;17.118;2023-02-24T10:20:21;16.30;59.00
14877;DHT22;22152;48.158;17.118;2023-02-24T10:23:20;16.30;58.60
14877;DHT22;22152;48.158;17.118;2023-02-24T10:26:08;16.50;59.00
14877;DHT22;22152;48.158;17.118;2023-02-24T10:28:57;16.60;58.70
14877;DHT22;22152;48.158;17.118;2023-02-24T10:31:43;16.80;58.50
14877;DHT22;22152;48.158;17.118;2023-02-24T10:34:14;17.00;58.20
14877;DHT22;22152;48.158;17.118;2023-02-24T10:36:51;17.20;58.10
14877;DHT22;22152;48.158;17.118;2023-02-24T10:39:25;17.10;57.80
14877;DHT22;22152;48.158;17.118;2023-02-24T10:41:56;17.00;58.50
14877;DHT22;22152;48.158;17.118;2023-02-24T10:44:42;16.80;58.30
14877;DHT22;22152;48.158;17.118;2023-02-24T10:47:27;16.60;58.70
14877;DHT22;22152;48.158;17.118;2023-02-24T10:49:59;16.60;59.30
14877;DHT22;22152;48.158;17.118;2023-02-24T10:52:31;16.50;59.40
14877;DHT22;22152;48.158;17.118;2023-02-24T10:55:46;16.30;59.40
14877;DHT22;22152;48.158;17.118;2023-02-24T10:58:15;16.00;59.80
14877;DHT22;22152;48.158;17.118;2023-02-24T11:00:55;15.80;60.00
14877;DHT22;22152;48.158;17.118;2023-02-24T11:03:32;15.70;60.60
14877;DHT22;22152;48.158;17.118;2023-02-24T11:06:23;15.60;61.10
14877;DHT22;22152;48.158;17.118;2023-02-24T11:12:05;15.30;61.50
14877;DHT22;22152;48.158;17.118;2023-02-24T11:15:00;15.30;62.10
14877;DHT22;22152;48.158;17.118;2023-02-24T11:17:54;15.30;62.30
14877;DHT22;22152;48.158;17.118;2023-02-24T11:20:41;15.50;62.40
14877;DHT22;22152;48.158;17.118;2023-02-24T11:23:17;15.70;61.90
14877;DHT22;22152;48.158;17.118;2023-02-24T11:25:51;16.00;61.70
14877;DHT22;22152;48.158;17.118;2023-02-24T11:34:43;16.50;60.20
14877;DHT22;22152;48.158;17.118;2023-02-24T11:40:19;16.80;59.60
14877;DHT22;22152;48.158;17.118;2023-02-24T11:43:01;17.20;58.90
14877;DHT22;22152;48.158;17.118;2023-02-24T11:48:32;17.50;58.40
14877;DHT22;22152;48.158;17.118;2023-02-24T11:51:11;17.50;58.50
14877;DHT22;22152;48.158;17.118;2023-02-24T11:53:57;17.60;58.90
14877;DHT22;22152;48.158;17.118;2023-02-24T11:56:52;17.70;59.10
14877;DHT22;22152;48.158;17.118;2023-02-24T11:59:40;17.80;58.90
14877;DHT22;22152;48.158;17.118;2023-02-24T12:05:13;18.00;57.40
14877;DHT22;22152;48.158;17.118;2023-02-24T12:08:03;18.00;57.00
14877;DHT22;22152;48.158;17.118;2023-02-24T12:10:34;18.00;57.00
14877;DHT22;22152;48.158;17.118;2023-02-24T12:15:37;17.80;57.40
14877;DHT22;22152;48.158;17.118;2023-02-24T12:21:14;17.80;57.40
14877;DHT22;22152;48.158;17.118;2023-02-24T12:23:46;17.70;57.30
14877;DHT22;22152;48.158;17.118;2023-02-24T12:35:30;17.50;57.70
14877;DHT22;22152;48.158;17.118;2023-02-24T12:47:14;17.80;56.70
14877;DHT22;22152;48.158;17.118;2023-02-24T12:58:29;18.10;55.50
14877;DHT22;22152;48.158;17.118;2023-02-24T13:01:23;18.20;55.10
14877;DHT22;22152;48.158;17.118;2023-02-24T13:06:52;18.20;54.50
14877;DHT22;22152;48.158;17.118;2023-02-24T13:12:38;18.40;54.30
14877;DHT22;22152;48.158;17.118;2023-02-24T13:15:25;18.40;53.90
14877;DHT22;22152;48.158;17.118;2023-02-24T13:17:53;18.40;53.90
14877;DHT22;22152;48.158;17.118;2023-02-24T13:20:35;18.30;53.70
14877;DHT22;22152;48.158;17.118;2023-02-24T13:23:15;18.30;53.70
14877;DHT22;22152;48.158;17.118;2023-02-24T13:25:50;18.30;53.70
14877;DHT22;22152;48.158;17.118;2023-02-24T13:28:23;18.20;53.90
14877;DHT22;22152;48.158;17.118;2023-02-24T13:31:11;18.20;53.90
14877;DHT22;22152;48.158;17.118;2023-02-24T13:33:39;18.10;53.90
14877;DHT22;22152;48.158;17.118;2023-02-24T13:36:26;18.10;53.60
14877;DHT22;22152;48.158;17.118;2023-02-24T13:41:34;18.10;53.50
14877;DHT22;22152;48.158;17.118;2023-02-24T13:44:20;18.30;52.90
14877;DHT22;22152;48.158;17.118;2023-02-24T13:55:49;18.20;52.40
14877;DHT22;22152;48.158;17.118;2023-02-24T13:58:31;18.20;53.10
14877;DHT22;22152;48.158;17.118;2023-02-24T14:01:20;18.10;52.70
14877;DHT22;22152;48.158;17.118;2023-02-24T14:04:31;18.00;52.80
14877;DHT22;22152;48.158;17.118;2023-02-24T14:07:08;17.70;53.10
14877;DHT22;22152;48.158;17.118;2023-02-24T14:09:40;17.50;53.20
14877;DHT22;22152;48.158;17.118;2023-02-24T14:12:15;17.40;53.40
14877;DHT22;22152;48.158;17.118;2023-02-24T14:14:47;17.30;53.60
14877;DHT22;22152;48.158;17.118;2023-02-24T14:17:33;17.10;53.70
14877;DHT22;22152;48.158;17.118;2023-02-24T14:22:50;16.90;55.60
14877;DHT22;22152;48.158;17.118;2023-02-24T14:25:19;16.90;55.40
14877;DHT22;22152;48.158;17.118;2023-02-24T14:27:48;16.90;55.20
14877;DHT22;22152;48.158;17.118;2023-02-24T14:30:25;17.00;55.00
14877;DHT22;22152;48.158;17.118;2023-02-24T14:33:00;17.00;54.60
14877;DHT22;22152;48.158;17.118;2023-02-24T14:37:55;17.10;54.50
14877;DHT22;22152;48.158;17.118;2023-02-24T14:40:22;17.20;54.30
14877;DHT22;22152;48.158;17.118;2023-02-24T14:42:51;17.00;54.20
14877;DHT22;22152;48.158;17.118;2023-02-24T14:45:21;16.90;54.30
14877;DHT22;22152;48.158;17.118;2023-02-24T14:47:55;16.70;54.10
14877;DHT22;22152;48.158;17.118;2023-02-24T14:50:28;16.50;54.20
14877;DHT22;22152;48.158;17.118;2023-02-24T14:53:03;16.30;54.50
14877;DHT22;22152;48.158;17.118;2023-02-24T14:55:41;16.10;54.80
14877;DHT22;22152;48.158;17.118;2023-02-24T14:58:22;16.00;55.20
14877;DHT22;22152;48.158;17.118;2023-02-24T15:00:53;15.90;55.50
14877;DHT22;22152;48.158;17.118;2023-02-24T15:03:31;15.70;55.70
14877;DHT22;22152;48.158;17.118;2023-02-24T15:06:06;15.60;56.00
14877;DHT22;22152;48.158;17.118;2023-02-24T15:08:45;15.50;56.20
14877;DHT22;22152;48.158;17.118;2023-02-24T15:13:45;15.40;56.60
14877;DHT22;22152;48.158;17.118;2023-02-24T15:19:38;15.50;57.40
14877;DHT22;22152;48.158;17.118;2023-02-24T15:22:29;15.50;56.70
14877;DHT22;22152;48.158;17.118;2023-02-24T15:25:28;15.50;56.80
14877;DHT22;22152;48.158;17.118;2023-02-24T15:35:31;15.40;56.60
14877;DHT22;22152;48.158;17.118;2023-02-24T15:38:01;15.40;56.80
14877;DHT22;22152;48.158;17.118;2023-02-24T15:40:28;15.40;56.80
14877;DHT22;22152;48.158;17.118;2023-02-24T15:45:34;15.30;57.30
14877;DHT22;22152;48.158;17.118;2023-02-24T15:48:23;15.30;57.70
14877;DHT22;22152;48.158;17.118;2023-02-24T15:50:53;15.20;57.90
14877;DHT22;22152;48.158;17.118;2023-02-24T15:53:19;15.00;58.20
14877;DHT22;22152;48.158;17.118;2023-02-24T15:55:45;14.90;58.70
14877;DHT22;22152;48.158;17.118;2023-02-24T15:58:17;14.70;59.10
14877;DHT22;22152;48.158;17.118;2023-02-24T16:00:45;14.60;59.50
14877;DHT22;22152;48.158;17.118;2023-02-24T16:03:11;14.40;59.80
14877;DHT22;22152;48.158;17.118;2023-02-24T16:05:37;14.30;60.00
14877;DHT22;22152;48.158;17.118;2023-02-24T16:08:03;14.30;60.50
14877;DHT22;22152;48.158;17.118;2023-02-24T16:10:30;14.20;60.60
14877;DHT22;22152;48.158;17.118;2023-02-24T16:12:58;14.20;60.70
14877;DHT22;22152;48.158;17.118;2023-02-24T16:15:31;14.10;60.90
14877;DHT22;22152;48.158;17.118;2023-02-24T16:17:59;14.10;61.00
14877;DHT22;22152;48.158;17.118;2023-02-24T16:20:28;14.00;61.20
14877;DHT22;22152;48.158;17.118;2023-02-24T16:23:02;14.00;61.40
14877;DHT22;22152;48.158;17.118;2023-02-24T16:25:35;13.90;61.50
14877;DHT22;22152;48.158;17.118;2023-02-24T16:28:03;13.90;61.90
14877;DHT22;22152;48.158;17.118;2023-02-24T16:30:29;13.90;61.80
14877;DHT22;22152;48.158;17.118;2023-02-24T16:33:00;13.90;61.90
14877;DHT22;22152;48.158;17.118;2023-02-24T16:35:26;13.80;62.00
14877;DHT22;22152;48.158;17.118;2023-02-24T16:37:52;13.80;62.00
14877;DHT22;22152;48.158;17.118;2023-02-24T16:40:23;13.80;62.10
14877;DHT22;22152;48.158;17.118;2023-02-24T16:42:52;13.80;62.50
14877;DHT22;22152;48.158;17.118;2023-02-24T16:45:25;13.70;62.80
14877;DHT22;22152;48.158;17.118;2023-02-24T16:47:54;13.80;63.00
14877;DHT22;22152;48.158;17.118;2023-02-24T16:50:25;13.70;63.00
14877;DHT22;22152;48.158;17.118;2023-02-24T16:52:54;13.80;63.40
14877;DHT22;22152;48.158;17.118;2023-02-24T16:55:21;13.70;63.60
14877;DHT22;22152;48.158;17.118;2023-02-24T16:57:46;13.70;64.30
14877;DHT22;22152;48.158;17.118;2023-02-24T17:00:14;13.60;64.40
14877;DHT22;22152;48.158;17.118;2023-02-24T17:02:43;13.60;64.70
14877;DHT22;22152;48.158;17.118;2023-02-24T17:05:27;13.50;65.40
14877;DHT22;22152;48.158;17.118;2023-02-24T17:07:55;13.40;66.00
14877;DHT22;22152;48.158;17.118;2023-02-24T17:10:22;13.30;66.80
14877;DHT22;22152;48.158;17.118;2023-02-24T17:12:49;13.20;67.10
14877;DHT22;22152;48.158;17.118;2023-02-24T17:15:21;13.10;68.00
14877;DHT22;22152;48.158;17.118;2023-02-24T17:17:48;13.00;68.60
14877;DHT22;22152;48.158;17.118;2023-02-24T17:20:16;12.80;68.70
14877;DHT22;22152;48.158;17.118;2023-02-24T17:22:44;12.70;69.20
14877;DHT22;22152;48.158;17.118;2023-02-24T17:25:22;12.60;69.50
14877;DHT22;22152;48.158;17.118;2023-02-24T17:27:50;12.60;69.80
14877;DHT22;22152;48.158;17.118;2023-02-24T17:30:19;12.60;70.00
14877;DHT22;22152;48.158;17.118;2023-02-24T17:32:46;12.60;70.10
14877;DHT22;22152;48.158;17.118;2023-02-24T17:35:12;12.60;69.80
14877;DHT22;22152;48.158;17.118;2023-02-24T17:37:38;12.50;70.60
14877;DHT22;22152;48.158;17.118;2023-02-24T17:40:05;12.50;70.90
14877;DHT22;22152;48.158;17.118;2023-02-24T17:42:31;12.40;70.80
14877;DHT22;22152;48.158;17.118;2023-02-24T17:44:58;12.40;71.00
14877;DHT22;22152;48.158;17.118;2023-02-24T17:47:24;12.40;71.30
14877;DHT22;22152;48.158;17.118;2023-02-24T17:49:50;12.40;71.40
14877;DHT22;22152;48.158;17.118;2023-02-24T17:52:16;12.40;71.50
14877;DHT22;22152;48.158;17.118;2023-02-24T17:54:42;12.40;71.70
14877;DHT22;22152;48.158;17.118;2023-02-24T17:57:08;12.50;72.70
14877;DHT22;22152;48.158;17.118;2023-02-24T17:59:35;12.50;71.50
14877;DHT22;22152;48.158;17.118;2023-02-24T18:02:01;12.60;71.40
14877;DHT22;22152;48.158;17.118;2023-02-24T18:04:28;12.60;71.20
14877;DHT22;22152;48.158;17.118;2023-02-24T18:06:55;12.60;71.40
14877;DHT22;22152;48.158;17.118;2023-02-24T18:09:21;12.60;71.60
14877;DHT22;22152;48.158;17.118;2023-02-24T18:11:48;12.60;72.10
14877;DHT22;22152;48.158;17.118;2023-02-24T18:14:15;12.60;72.70
14877;DHT22;22152;48.158;17.118;2023-02-24T18:16:41;12.60;73.20
14877;DHT22;22152;48.158;17.118;2023-02-24T18:19:07;12.60;73.50
14877;DHT22;22152;48.158;17.118;2023-02-24T18:21:33;12.60;73.80